createdAt,value
2023-05-24T00:00:24.845Z,62.81
2023-05-24T00:01:26.577Z,62.93
2023-05-24T00:02:28.417Z,62.78
2023-05-24T00:03:31.250Z,61.94
2023-05-24T00:04:33.713Z,61.85
2023-05-24T00:05:38.022Z,62.11
2023-05-24T00:06:39.803Z,62.85
2023-05-24T00:07:41.575Z,62.83
2023-05-24T00:08:43.399Z,63.06
2023-05-24T00:09:45.197Z,63.13
2023-05-24T00:10:47.008Z,63.18
2023-05-24T00:11:48.851Z,63.34
2023-05-24T00:12:51.014Z,63.83
2023-05-24T00:13:52.788Z,63.69
2023-05-24T00:14:54.601Z,63.65
2023-05-24T00:15:56.400Z,63.77
2023-05-24T00:16:58.282Z,64.61
2023-05-24T00:18:00.247Z,64.77
2023-05-24T00:19:02.390Z,64.79
2023-05-24T00:20:06.673Z,64.95
2023-05-24T00:21:09.127Z,64.92
2023-05-24T00:22:11.993Z,64.57
2023-05-24T00:23:13.746Z,64.75
2023-05-24T00:24:17.361Z,64.47
2023-05-24T00:25:19.212Z,64.47
2023-05-24T00:26:21.599Z,64.94
2023-05-24T00:27:23.411Z,65.18
2023-05-24T00:28:25.242Z,65.42
2023-05-24T00:29:26.981Z,64.96
2023-05-24T00:30:28.769Z,64.98
2023-05-24T00:31:30.696Z,65.21
2023-05-24T00:32:32.509Z,64.97
2023-05-24T00:33:34.524Z,64.69
2023-05-24T00:34:36.314Z,64.67
2023-05-24T00:35:38.060Z,64.58
2023-05-24T00:36:39.837Z,64.70
2023-05-24T00:37:45.331Z,64.44
2023-05-24T00:38:47.446Z,63.73
2023-05-24T00:39:49.193Z,63.41
2023-05-24T00:40:51.157Z,63.08
2023-05-24T00:41:53.212Z,62.92
2023-05-24T00:42:55.061Z,64.27
2023-05-24T00:43:56.879Z,63.70
2023-05-24T00:44:58.648Z,63.89
2023-05-24T00:46:22.532Z,63.68
2023-05-24T00:47:24.528Z,63.04
2023-05-24T00:48:28.948Z,63.17
2023-05-24T00:49:31.580Z,63.39
2023-05-24T00:50:34.033Z,63.59
2023-05-24T00:51:37.206Z,63.57
2023-05-24T00:52:43.068Z,63.04
2023-05-24T00:53:47.509Z,63.54
2023-05-24T00:54:49.852Z,63.24
2023-05-24T00:55:51.723Z,63.28
2023-05-24T00:56:54.964Z,62.69
2023-05-24T00:57:59.697Z,62.84
2023-05-24T00:59:01.471Z,62.68
2023-05-24T01:00:06.000Z,62.94
2023-05-24T01:01:08.466Z,63.40
2023-05-24T01:02:10.675Z,63.33
2023-05-24T01:03:12.546Z,63.78
2023-05-24T01:04:14.664Z,62.89
2023-05-24T01:05:17.563Z,62.71
2023-05-24T01:06:19.791Z,62.61
2023-05-24T01:07:54.611Z,62.94
2023-05-24T01:09:26.001Z,62.85
2023-05-24T01:10:52.468Z,62.97
2023-05-24T01:12:07.148Z,63.32
2023-05-24T01:13:27.459Z,62.94
2023-05-24T01:14:52.190Z,63.14
2023-05-24T01:16:01.604Z,63.09
2023-05-24T01:17:15.244Z,63.22
2023-05-24T01:18:26.245Z,62.90
2023-05-24T01:19:51.884Z,63.47
2023-05-24T01:21:06.810Z,63.75
2023-05-24T01:22:24.566Z,63.23
2023-05-24T01:23:51.902Z,63.30
2023-05-24T01:25:07.569Z,62.81
2023-05-24T01:26:27.972Z,62.70
2023-05-24T01:27:33.408Z,62.65
2023-05-24T01:28:36.266Z,63.09
2023-05-24T01:29:39.197Z,63.65
2023-05-24T01:30:41.991Z,63.59
2023-05-24T01:31:44.264Z,63.79
2023-05-24T01:32:46.306Z,63.48
2023-05-24T01:33:48.256Z,63.74
2023-05-24T01:34:50.064Z,63.94
2023-05-24T01:35:51.918Z,63.74
2023-05-24T01:36:54.208Z,64.09
2023-05-24T01:37:55.942Z,63.73
2023-05-24T01:38:57.723Z,64.04
2023-05-24T01:40:00.247Z,64.11
2023-05-24T01:41:22.804Z,64.29
2023-05-24T01:42:36.727Z,65.06
2023-05-24T01:43:43.484Z,66.25
2023-05-24T01:45:02.323Z,66.62
2023-05-24T01:46:21.307Z,65.88
2023-05-24T01:47:32.789Z,65.51
2023-05-24T01:49:05.303Z,65.13
2023-05-24T01:50:24.443Z,65.28
2023-05-24T01:51:34.426Z,65.81
2023-05-24T01:52:36.449Z,66.07
2023-05-24T01:53:47.095Z,66.31
2023-05-24T01:54:52.199Z,66.40
2023-05-24T01:55:56.770Z,66.39
2023-05-24T01:56:59.941Z,66.17
2023-05-24T01:58:06.044Z,65.35
2023-05-24T01:59:08.913Z,65.15
2023-05-24T02:00:14.445Z,65.14
2023-05-24T02:01:16.687Z,66.86
2023-05-24T02:02:19.279Z,67.06
2023-05-24T02:03:21.757Z,66.75
2023-05-24T02:04:24.734Z,66.82
2023-05-24T02:05:26.503Z,67.03
2023-05-24T02:06:28.307Z,66.69
2023-05-24T02:07:30.095Z,66.78
2023-05-24T02:08:31.878Z,66.76
2023-05-24T02:09:33.761Z,66.77
2023-05-24T02:10:38.477Z,66.03
2023-05-24T02:11:40.580Z,66.92
2023-05-24T02:12:42.362Z,67.25
2023-05-24T02:13:44.180Z,66.47
2023-05-24T02:14:45.931Z,66.99
2023-05-24T02:15:48.075Z,67.51
2023-05-24T02:16:51.000Z,67.47
2023-05-24T02:17:54.880Z,67.43
2023-05-24T02:18:57.571Z,66.78
2023-05-24T02:20:04.010Z,67.10
2023-05-24T02:21:05.932Z,66.50
2023-05-24T02:22:07.828Z,66.47
2023-05-24T02:23:09.679Z,66.59
2023-05-24T02:24:12.637Z,66.57
2023-05-24T02:25:14.667Z,66.83
2023-05-24T02:26:17.919Z,67.35
2023-05-24T02:27:19.714Z,68.06
2023-05-24T02:28:21.497Z,68.18
2023-05-24T02:29:23.319Z,67.89
2023-05-24T02:30:25.370Z,67.77
2023-05-24T02:31:28.928Z,67.62
2023-05-24T02:32:31.496Z,67.39
2023-05-24T02:33:33.925Z,67.53
2023-05-24T02:34:35.796Z,67.73
2023-05-24T02:35:37.527Z,68.05
2023-05-24T02:36:39.285Z,67.77
2023-05-24T02:37:41.205Z,67.84
2023-05-24T02:38:42.973Z,67.70
2023-05-24T02:39:44.700Z,67.93
2023-05-24T02:40:46.473Z,67.91
2023-05-24T02:41:48.211Z,68.24
2023-05-24T02:42:50.135Z,67.90
2023-05-24T02:43:51.860Z,67.89
2023-05-24T02:44:53.762Z,67.67
2023-05-24T02:45:55.718Z,68.21
2023-05-24T02:46:57.518Z,67.60
2023-05-24T02:47:59.351Z,67.84
2023-05-24T02:49:01.206Z,67.44
2023-05-24T02:50:03.156Z,67.30
2023-05-24T02:51:05.080Z,67.60
2023-05-24T02:52:07.242Z,68.09
2023-05-24T02:53:09.007Z,68.14
2023-05-24T02:54:10.782Z,68.37
2023-05-24T02:55:12.576Z,69.00
2023-05-24T02:56:14.347Z,69.27
2023-05-24T02:57:16.730Z,69.12
2023-05-24T02:58:18.486Z,69.76
2023-05-24T02:59:20.226Z,69.54
2023-05-24T03:00:22.111Z,69.38
2023-05-24T03:01:23.924Z,69.75
2023-05-24T03:02:28.700Z,69.90
2023-05-24T03:03:30.842Z,69.89
2023-05-24T03:04:32.750Z,69.95
2023-05-24T03:05:34.523Z,70.30
2023-05-24T03:06:36.490Z,70.37
2023-05-24T03:07:38.230Z,70.67
2023-05-24T03:08:40.689Z,70.67
2023-05-24T03:09:42.585Z,70.68
2023-05-24T03:10:44.708Z,70.81
2023-05-24T03:11:46.588Z,70.72
2023-05-24T03:12:48.352Z,71.31
2023-05-24T03:13:50.267Z,71.28
2023-05-24T03:14:52.115Z,71.52
2023-05-24T03:15:53.937Z,71.34
2023-05-24T03:16:55.842Z,71.26
2023-05-24T03:17:57.584Z,71.32
2023-05-24T03:19:00.171Z,71.23
2023-05-24T03:20:02.085Z,71.57
2023-05-24T03:21:04.121Z,71.17
2023-05-24T03:22:06.347Z,71.37
2023-05-24T03:23:09.855Z,71.42
2023-05-24T03:24:13.346Z,71.07
2023-05-24T03:25:15.203Z,70.95
2023-05-24T03:26:18.802Z,71.10
2023-05-24T03:27:20.572Z,71.22
2023-05-24T03:28:22.451Z,71.13
2023-05-24T03:29:24.263Z,71.41
2023-05-24T03:30:26.141Z,71.69
2023-05-24T03:31:28.219Z,71.75
2023-05-24T03:32:30.001Z,71.77
2023-05-24T03:33:32.272Z,72.01
2023-05-24T03:34:34.016Z,71.63
2023-05-24T03:35:35.877Z,71.38
2023-05-24T03:36:37.670Z,71.37
2023-05-24T03:37:39.488Z,70.98
2023-05-24T03:38:41.282Z,70.95
2023-05-24T03:39:43.019Z,70.99
2023-05-24T03:40:44.888Z,70.75
2023-05-24T03:41:46.709Z,71.03
2023-05-24T03:42:48.453Z,71.34
2023-05-24T03:43:50.588Z,71.10
2023-05-24T03:44:52.348Z,71.49
2023-05-24T03:45:54.236Z,71.99
2023-05-24T03:46:56.106Z,71.86
2023-05-24T03:47:58.592Z,71.49
2023-05-24T03:49:00.431Z,71.72
2023-05-24T03:50:02.225Z,71.17
2023-05-24T03:51:04.148Z,71.06
2023-05-24T03:52:06.375Z,70.60
2023-05-24T03:53:08.164Z,70.74
2023-05-24T03:54:10.146Z,70.11
2023-05-24T03:55:11.893Z,69.85
2023-05-24T03:56:13.641Z,68.93
2023-05-24T03:57:15.780Z,68.28
2023-05-24T03:58:17.601Z,67.46
2023-05-24T03:59:19.942Z,68.02
2023-05-24T04:00:21.835Z,67.38
2023-05-24T04:01:33.518Z,66.90
2023-05-24T04:02:39.836Z,66.28
2023-05-24T04:03:41.847Z,65.56
2023-05-24T04:04:43.635Z,65.36
2023-05-24T04:05:45.852Z,65.56
2023-05-24T04:06:48.134Z,65.30
2023-05-24T04:07:52.665Z,65.67
2023-05-24T04:09:01.081Z,65.03
2023-05-24T04:10:05.044Z,64.69
2023-05-24T04:11:07.275Z,64.27
2023-05-24T04:12:09.290Z,63.84
2023-05-24T04:13:11.252Z,63.95
2023-05-24T04:14:13.016Z,63.04
2023-05-24T04:15:15.397Z,62.94
2023-05-24T04:16:17.614Z,63.06
2023-05-24T04:17:19.516Z,63.01
2023-05-24T04:18:21.891Z,61.50
2023-05-24T04:19:23.740Z,60.75
2023-05-24T04:20:27.312Z,60.52
2023-05-24T04:21:29.213Z,59.78
2023-05-24T04:22:30.960Z,58.33
2023-05-24T04:23:32.758Z,56.98
2023-05-24T04:24:34.504Z,57.53
2023-05-24T04:25:36.377Z,57.27
2023-05-24T04:26:38.156Z,57.55
2023-05-24T04:27:40.104Z,57.33
2023-05-24T04:28:42.540Z,57.21
2023-05-24T04:29:50.073Z,57.13
2023-05-24T04:30:52.458Z,56.78
2023-05-24T04:31:54.248Z,56.70
2023-05-24T04:32:58.928Z,56.52
2023-05-24T04:34:01.875Z,55.17
2023-05-24T04:35:04.506Z,55.12
2023-05-24T04:36:06.465Z,54.28
2023-05-24T04:37:08.988Z,54.26
2023-05-24T04:38:12.682Z,54.19
2023-05-24T04:39:14.495Z,53.11
2023-05-24T04:40:25.246Z,51.61
2023-05-24T04:41:28.342Z,51.75
2023-05-24T04:42:31.860Z,50.88
2023-05-24T04:43:34.930Z,49.34
2023-05-24T04:44:36.794Z,50.24
2023-05-24T04:45:38.523Z,50.05
2023-05-24T04:46:40.335Z,49.43
2023-05-24T04:47:42.537Z,47.95
2023-05-24T04:48:44.833Z,48.19
2023-05-24T04:49:46.566Z,47.96
2023-05-24T04:50:48.349Z,48.20
2023-05-24T04:51:50.156Z,47.57
2023-05-24T04:52:51.939Z,47.16
2023-05-24T04:53:53.724Z,46.97
2023-05-24T04:54:55.740Z,47.89
2023-05-24T04:55:57.610Z,47.54
2023-05-24T04:56:59.527Z,46.86
2023-05-24T04:58:01.376Z,46.45
2023-05-24T04:59:03.164Z,46.27
2023-05-24T05:00:05.699Z,45.29
2023-05-24T05:01:07.844Z,44.78
2023-05-24T05:02:09.846Z,45.24
2023-05-24T05:03:11.910Z,44.78
2023-05-24T05:04:13.958Z,45.82
2023-05-24T05:05:16.353Z,45.82
2023-05-24T05:06:18.114Z,44.52
2023-05-24T05:07:20.215Z,44.26
2023-05-24T05:08:25.516Z,45.52
2023-05-24T05:09:30.905Z,45.24
2023-05-24T05:10:35.157Z,44.90
2023-05-24T05:11:38.024Z,44.14
2023-05-24T05:12:39.796Z,43.75
2023-05-24T05:13:41.601Z,43.67
2023-05-24T05:14:43.424Z,42.65
2023-05-24T05:15:45.182Z,42.23
2023-05-24T05:16:47.140Z,40.79
2023-05-24T05:17:49.438Z,41.31
2023-05-24T05:18:51.249Z,41.33
2023-05-24T05:19:53.056Z,40.55
2023-05-24T05:20:54.804Z,40.20
2023-05-24T05:21:56.591Z,40.90
2023-05-24T05:22:58.350Z,40.33
2023-05-24T05:24:01.145Z,40.05
2023-05-24T05:25:02.929Z,39.85
2023-05-24T05:26:04.746Z,40.52
2023-05-24T05:27:06.829Z,39.41
2023-05-24T05:28:08.556Z,39.74
2023-05-24T05:29:12.996Z,40.20
2023-05-24T05:30:15.024Z,39.76
2023-05-24T05:31:16.780Z,40.50
2023-05-24T05:32:18.632Z,40.09
2023-05-24T05:33:20.602Z,39.59
2023-05-24T05:34:22.407Z,39.31
2023-05-24T05:35:24.379Z,39.40
2023-05-24T05:36:26.228Z,40.11
2023-05-24T05:37:27.951Z,39.59
2023-05-24T05:38:29.694Z,38.92
2023-05-24T05:39:32.119Z,38.83
2023-05-24T05:40:34.117Z,39.50
2023-05-24T05:41:40.204Z,38.61
2023-05-24T05:42:41.999Z,40.02
2023-05-24T05:43:43.726Z,38.16
2023-05-24T05:44:45.531Z,38.05
2023-05-24T05:45:47.436Z,38.08
2023-05-24T05:46:49.293Z,37.94
2023-05-24T05:47:51.827Z,36.97
2023-05-24T05:48:54.898Z,38.35
2023-05-24T05:49:56.730Z,37.55
2023-05-24T05:50:58.505Z,36.65
2023-05-24T05:52:00.294Z,38.32
2023-05-24T05:53:02.068Z,37.83
2023-05-24T05:54:03.945Z,38.43
2023-05-24T05:55:06.284Z,37.45
2023-05-24T05:56:08.046Z,36.97
2023-05-24T05:57:12.430Z,37.23
2023-05-24T05:58:14.278Z,36.70
2023-05-24T05:59:16.199Z,36.69
2023-05-24T06:00:18.493Z,37.34
2023-05-24T06:01:20.276Z,38.21
2023-05-24T06:02:27.677Z,37.46
2023-05-24T06:03:29.747Z,38.18
2023-05-24T06:04:31.666Z,37.72
2023-05-24T06:05:33.694Z,36.72
2023-05-24T06:06:35.464Z,38.15
2023-05-24T06:07:38.777Z,37.98
2023-05-24T06:08:41.094Z,37.97
2023-05-24T06:09:42.881Z,37.33
2023-05-24T06:10:47.355Z,37.88
2023-05-24T06:11:49.153Z,38.93
2023-05-24T06:12:51.169Z,37.78
2023-05-24T06:13:53.651Z,38.33
2023-05-24T06:14:57.684Z,38.50
2023-05-24T06:16:00.034Z,38.45
2023-05-24T06:17:02.297Z,38.17
2023-05-24T06:18:05.578Z,38.86
2023-05-24T06:19:07.935Z,38.21
2023-05-24T06:20:13.824Z,38.69
2023-05-24T06:21:16.699Z,39.54
2023-05-24T06:22:18.547Z,38.72
2023-05-24T06:23:20.585Z,39.54
2023-05-24T06:24:22.404Z,39.58
2023-05-24T06:25:25.041Z,40.44
2023-05-24T06:26:27.474Z,39.91
2023-05-24T06:27:29.219Z,38.97
2023-05-24T06:28:31.052Z,36.71
2023-05-24T06:29:32.850Z,39.51
2023-05-24T06:30:35.766Z,37.14
2023-05-24T06:31:37.872Z,37.26
2023-05-24T06:32:39.987Z,36.93
2023-05-24T06:33:46.726Z,36.80
2023-05-24T06:34:51.327Z,35.90
2023-05-24T06:35:53.120Z,35.85
2023-05-24T06:36:54.855Z,35.39
2023-05-24T06:37:58.121Z,34.62
2023-05-24T06:39:02.680Z,35.60
2023-05-24T06:40:11.397Z,35.68
2023-05-24T06:41:13.302Z,33.88
2023-05-24T06:42:15.048Z,33.61
2023-05-24T06:43:17.591Z,33.57
2023-05-24T06:44:19.617Z,32.48
2023-05-24T06:45:21.464Z,33.32
2023-05-24T06:46:23.311Z,32.69
2023-05-24T06:47:25.413Z,31.96
2023-05-24T06:48:27.446Z,32.70
2023-05-24T06:49:29.574Z,33.16
2023-05-24T06:50:32.663Z,33.50
2023-05-24T06:51:34.615Z,33.58
2023-05-24T06:52:36.392Z,32.11
2023-05-24T06:53:38.119Z,32.47
2023-05-24T06:54:40.082Z,31.54
2023-05-24T06:55:41.873Z,31.46
2023-05-24T06:56:43.663Z,31.02
2023-05-24T06:57:45.532Z,30.81
2023-05-24T06:58:47.714Z,29.88
2023-05-24T06:59:49.495Z,31.27
2023-05-24T07:00:52.302Z,29.50
2023-05-24T07:01:58.907Z,29.79
2023-05-24T07:03:01.922Z,30.02
2023-05-24T07:04:03.771Z,28.92
2023-05-24T07:05:06.605Z,29.26
2023-05-24T07:06:10.148Z,28.69
2023-05-24T07:07:13.809Z,28.99
2023-05-24T07:08:15.669Z,29.01
2023-05-24T07:09:17.952Z,29.83
2023-05-24T07:10:19.809Z,30.08
2023-05-24T07:11:21.858Z,30.24
2023-05-24T07:12:23.731Z,30.50
2023-05-24T07:13:25.481Z,30.18
2023-05-24T07:14:28.305Z,31.41
2023-05-24T07:15:30.443Z,31.33
2023-05-24T07:16:32.286Z,32.12
2023-05-24T07:17:34.249Z,33.59
2023-05-24T07:18:36.477Z,31.62
2023-05-24T07:19:38.286Z,30.47
2023-05-24T07:20:40.434Z,31.18
2023-05-24T07:21:42.468Z,30.27
2023-05-24T07:22:44.517Z,30.76
2023-05-24T07:23:46.276Z,31.49
2023-05-24T07:24:48.061Z,30.63
2023-05-24T07:25:49.787Z,30.21
2023-05-24T07:26:52.696Z,30.83
2023-05-24T07:27:54.436Z,29.36
2023-05-24T07:28:56.489Z,28.12
2023-05-24T07:29:58.828Z,30.51
2023-05-24T07:31:01.081Z,31.41
2023-05-24T07:32:02.889Z,30.10
2023-05-24T07:33:04.740Z,30.13
2023-05-24T07:34:06.565Z,31.15
2023-05-24T07:35:08.916Z,30.16
2023-05-24T07:36:11.920Z,29.36
2023-05-24T07:37:13.717Z,30.80
2023-05-24T07:38:15.503Z,28.26
2023-05-24T07:39:17.266Z,29.68
2023-05-24T07:40:19.210Z,30.08
2023-05-24T07:41:26.704Z,28.85
2023-05-24T07:42:28.518Z,27.90
2023-05-24T07:43:30.514Z,27.99
2023-05-24T07:44:32.384Z,28.85
2023-05-24T07:45:34.285Z,29.68
2023-05-24T07:46:36.130Z,28.93
2023-05-24T07:47:39.608Z,29.63
2023-05-24T07:48:41.708Z,29.42
2023-05-24T07:49:43.488Z,30.53
2023-05-24T07:50:48.866Z,29.72
2023-05-24T07:51:50.744Z,28.96
2023-05-24T07:52:52.661Z,28.88
2023-05-24T07:53:54.551Z,28.66
2023-05-24T07:54:56.316Z,27.12
2023-05-24T07:55:58.058Z,27.70
2023-05-24T07:56:59.866Z,27.76
2023-05-24T07:58:02.174Z,30.45
2023-05-24T07:59:05.310Z,27.87
2023-05-24T08:00:15.156Z,29.00
2023-05-24T08:01:21.400Z,26.88
2023-05-24T08:02:23.414Z,26.60
2023-05-24T08:03:26.065Z,26.08
2023-05-24T08:04:28.248Z,26.15
2023-05-24T08:05:30.188Z,26.01
2023-05-24T08:06:35.297Z,27.31
2023-05-24T08:07:37.151Z,26.03
2023-05-24T08:08:40.371Z,26.26
2023-05-24T08:09:42.178Z,25.65
2023-05-24T08:10:44.002Z,26.10
2023-05-24T08:11:45.968Z,26.67
2023-05-24T08:12:47.936Z,26.17
2023-05-24T08:13:49.680Z,25.58
2023-05-24T08:14:51.458Z,25.36
2023-05-24T08:15:53.257Z,25.95
2023-05-24T08:16:55.033Z,26.34
2023-05-24T08:17:57.022Z,27.90
2023-05-24T08:18:58.837Z,27.58
2023-05-24T08:20:01.208Z,27.15
2023-05-24T08:21:03.038Z,25.24
2023-05-24T08:22:05.048Z,25.54
2023-05-24T08:23:06.942Z,26.14
2023-05-24T08:24:09.648Z,25.70
2023-05-24T08:25:14.609Z,26.20
2023-05-24T08:26:19.274Z,26.11
2023-05-24T08:27:21.548Z,26.75
2023-05-24T08:28:23.480Z,26.59
2023-05-24T08:29:25.485Z,25.46
2023-05-24T08:30:27.300Z,24.45
2023-05-24T08:31:29.058Z,24.83
2023-05-24T08:32:32.403Z,23.56
2023-05-24T08:33:34.213Z,24.71
2023-05-24T08:34:39.017Z,26.09
2023-05-24T08:35:41.589Z,25.63
2023-05-24T08:36:44.078Z,25.37
2023-05-24T08:37:47.466Z,24.27
2023-05-24T08:38:49.281Z,24.90
2023-05-24T08:39:51.282Z,24.27
2023-05-24T08:40:53.197Z,24.60
2023-05-24T08:42:08.525Z,23.38
2023-05-24T08:43:12.368Z,25.32
2023-05-24T08:44:14.591Z,24.76
2023-05-24T08:45:18.212Z,24.25
2023-05-24T08:46:20.436Z,23.61
2023-05-24T08:47:22.657Z,24.56
2023-05-24T08:48:25.900Z,22.91
2023-05-24T08:49:32.083Z,22.84
2023-05-24T08:50:35.789Z,25.28
2023-05-24T08:51:39.834Z,24.44
2023-05-24T08:52:42.839Z,24.21
2023-05-24T08:53:48.861Z,22.86
2023-05-24T08:54:53.232Z,23.77
2023-05-24T08:55:56.293Z,25.10
2023-05-24T08:56:59.474Z,23.02
2023-05-24T08:58:01.515Z,23.55
2023-05-24T08:59:03.342Z,23.53
2023-05-24T09:00:07.292Z,22.48
2023-05-24T09:01:11.554Z,21.83
2023-05-24T09:02:15.314Z,21.85
2023-05-24T09:03:18.820Z,22.37
2023-05-24T09:04:25.268Z,23.54
2023-05-24T09:05:28.880Z,22.44
2023-05-24T09:06:30.852Z,21.14
2023-05-24T09:07:33.355Z,22.67
2023-05-24T09:08:37.544Z,23.22
2023-05-24T09:09:45.413Z,22.55
2023-05-24T09:10:55.014Z,21.96
2023-05-24T09:12:02.285Z,21.78
2023-05-24T09:13:07.481Z,21.48
2023-05-24T09:14:09.757Z,22.25
2023-05-24T09:15:12.252Z,23.66
2023-05-24T09:16:15.555Z,22.75
2023-05-24T09:17:17.550Z,22.46
2023-05-24T09:18:19.431Z,21.45
2023-05-24T09:19:21.326Z,22.68
2023-05-24T09:20:23.524Z,21.32
2023-05-24T09:21:25.783Z,21.48
2023-05-24T09:22:30.674Z,20.82
2023-05-24T09:23:32.868Z,20.63
2023-05-24T09:24:41.693Z,21.15
2023-05-24T09:25:48.096Z,22.30
2023-05-24T09:26:51.160Z,20.48
2023-05-24T09:27:53.919Z,19.70
2023-05-24T09:28:56.665Z,20.55
2023-05-24T09:29:59.019Z,20.00
2023-05-24T09:31:06.370Z,19.95
2023-05-24T09:32:09.516Z,19.32
2023-05-24T09:33:12.965Z,20.50
2023-05-24T09:34:18.069Z,22.38
2023-05-24T09:35:19.864Z,21.37
2023-05-24T09:36:22.027Z,20.31
2023-05-24T09:37:31.093Z,21.56
2023-05-24T09:38:36.505Z,22.65
2023-05-24T09:39:42.232Z,23.36
2023-05-24T09:40:45.008Z,22.77
2023-05-24T09:41:56.797Z,24.21
2023-05-24T09:43:09.949Z,23.08
2023-05-24T09:44:15.499Z,25.73
2023-05-24T09:45:17.805Z,22.54
2023-05-24T09:46:20.269Z,24.57
2023-05-24T09:47:22.245Z,24.04
2023-05-24T09:48:24.243Z,25.98
2023-05-24T09:49:26.065Z,24.25
2023-05-24T09:50:27.943Z,24.46
2023-05-24T09:51:31.177Z,24.71
2023-05-24T09:52:37.087Z,24.10
2023-05-24T09:53:38.909Z,23.66
2023-05-24T09:54:41.881Z,25.06
2023-05-24T09:55:43.874Z,24.98
2023-05-24T09:56:46.859Z,26.24
2023-05-24T09:57:54.010Z,26.24
2023-05-24T09:58:56.856Z,27.76
2023-05-24T09:59:59.620Z,25.86
2023-05-24T10:01:09.186Z,25.83
2023-05-24T10:02:12.639Z,24.96
2023-05-24T10:03:15.391Z,25.93
2023-05-24T10:04:17.440Z,25.33
2023-05-24T10:05:19.398Z,26.87
2023-05-24T10:06:21.407Z,26.41
2023-05-24T10:07:23.203Z,26.01
2023-05-24T10:08:26.571Z,25.40
2023-05-24T10:09:34.231Z,23.65
2023-05-24T10:10:36.688Z,23.39
2023-05-24T10:11:38.618Z,22.91
2023-05-24T10:12:46.989Z,22.49
2023-05-24T10:13:49.706Z,21.90
2023-05-24T10:14:52.583Z,22.71
2023-05-24T10:15:54.450Z,23.42
2023-05-24T10:16:56.634Z,22.04
2023-05-24T10:18:00.134Z,21.18
2023-05-24T10:19:01.991Z,22.20
2023-05-24T10:20:07.011Z,20.71
2023-05-24T10:21:11.337Z,22.74
2023-05-24T10:22:14.347Z,22.09
2023-05-24T10:23:21.791Z,20.79
2023-05-24T10:24:27.147Z,21.95
2023-05-24T10:25:30.084Z,23.51
2023-05-24T10:26:32.973Z,21.39
2023-05-24T10:27:36.128Z,21.33
2023-05-24T10:28:49.126Z,21.28
2023-05-24T10:30:08.049Z,22.84
2023-05-24T10:31:16.125Z,21.72
2023-05-24T10:32:19.702Z,21.71
2023-05-24T10:33:24.226Z,21.70
2023-05-24T10:34:26.906Z,22.68
2023-05-24T10:35:29.892Z,22.24
2023-05-24T10:36:32.831Z,21.82
2023-05-24T10:37:34.669Z,21.47
2023-05-24T10:38:40.151Z,20.00
2023-05-24T10:39:42.144Z,22.57
2023-05-24T10:40:44.028Z,22.30
2023-05-24T10:41:45.951Z,21.55
2023-05-24T10:42:48.300Z,20.50
2023-05-24T10:44:07.881Z,20.66
2023-05-24T10:45:33.071Z,22.93
2023-05-24T10:46:35.080Z,23.65
2023-05-24T10:47:39.161Z,22.45
2023-05-24T10:48:44.107Z,20.95
2023-05-24T10:49:54.856Z,22.27
2023-05-24T10:50:56.563Z,21.49
2023-05-24T10:52:03.340Z,22.28
2023-05-24T10:53:19.129Z,24.18
2023-05-24T10:54:27.369Z,22.59
2023-05-24T10:55:29.219Z,23.78
2023-05-24T10:56:31.299Z,22.75
2023-05-24T10:57:33.379Z,22.42
2023-05-24T10:58:38.061Z,24.37
2023-05-24T10:59:40.492Z,23.62
2023-05-24T11:00:44.639Z,22.91
2023-05-24T11:01:55.256Z,24.14
2023-05-24T11:03:11.132Z,26.52
2023-05-24T11:04:17.198Z,24.06
2023-05-24T11:05:19.903Z,23.45
2023-05-24T11:06:55.786Z,24.50
2023-05-24T11:08:01.697Z,25.40
2023-05-24T11:09:03.680Z,27.05
2023-05-24T11:10:10.523Z,24.86
2023-05-24T11:12:20.824Z,23.02
2023-05-24T11:13:22.680Z,24.29
2023-05-24T11:14:27.785Z,24.75
2023-05-24T11:15:30.401Z,23.19
2023-05-24T11:16:40.142Z,24.25
2023-05-24T11:18:09.247Z,23.36
2023-05-24T11:19:18.104Z,23.22
2023-05-24T11:20:20.668Z,23.17
2023-05-24T11:21:23.794Z,21.75
2023-05-24T11:22:26.924Z,23.67
2023-05-24T11:23:29.965Z,22.38
2023-05-24T11:24:33.154Z,21.94
2023-05-24T11:25:38.864Z,21.82
2023-05-24T11:26:41.344Z,22.34
2023-05-24T11:27:44.803Z,22.29
2023-05-24T11:28:47.878Z,22.01
2023-05-24T11:29:49.707Z,21.55
2023-05-24T11:30:53.636Z,21.45
2023-05-24T11:32:06.184Z,21.48
2023-05-24T11:33:16.258Z,21.09
2023-05-24T11:34:19.141Z,23.12
2023-05-24T11:35:23.238Z,21.10
2023-05-24T11:36:26.205Z,24.55
2023-05-24T11:37:38.630Z,23.61
2023-05-24T11:38:49.000Z,23.07
2023-05-24T11:39:54.512Z,21.98
2023-05-24T11:40:58.491Z,22.32
2023-05-24T11:42:01.562Z,22.23
2023-05-24T11:43:06.822Z,23.38
2023-05-24T11:44:10.399Z,24.54
2023-05-24T11:45:14.074Z,23.63
2023-05-24T11:46:16.519Z,23.66
2023-05-24T11:47:20.902Z,23.53
2023-05-24T11:48:22.780Z,23.71
2023-05-24T11:49:24.578Z,25.80
2023-05-24T11:50:28.505Z,26.44
2023-05-24T11:51:32.348Z,25.15
2023-05-24T11:52:40.163Z,26.98
2023-05-24T11:53:41.941Z,26.22
2023-05-24T11:54:43.839Z,28.10
2023-05-24T11:55:45.667Z,27.93
2023-05-24T11:56:47.867Z,27.97
2023-05-24T11:57:57.976Z,27.92
2023-05-24T11:59:23.775Z,28.86
2023-05-24T12:00:26.898Z,28.10
2023-05-24T12:01:29.106Z,28.99
2023-05-24T12:02:31.181Z,29.61
2023-05-24T12:03:33.215Z,30.00
2023-05-24T12:04:35.385Z,30.04
2023-05-24T12:05:38.129Z,30.37
2023-05-24T12:06:42.384Z,30.50
2023-05-24T12:07:48.918Z,28.94
2023-05-24T12:08:50.887Z,28.87
2023-05-24T12:09:52.768Z,27.88
2023-05-24T12:10:54.800Z,29.61
2023-05-24T12:11:58.544Z,28.83
2023-05-24T12:13:00.725Z,26.49
2023-05-24T12:14:02.932Z,28.21
2023-05-24T12:15:08.123Z,28.60
2023-05-24T12:16:12.202Z,28.42
2023-05-24T12:17:18.551Z,28.49
2023-05-24T12:18:24.833Z,31.04
2023-05-24T12:19:34.837Z,28.88
2023-05-24T12:20:39.250Z,27.09
2023-05-24T12:21:41.930Z,28.29
2023-05-24T12:22:51.815Z,28.98
2023-05-24T12:23:53.637Z,27.06
2023-05-24T12:24:55.454Z,27.16
2023-05-24T12:26:01.163Z,30.38
2023-05-24T12:27:07.988Z,29.75
2023-05-24T12:28:10.102Z,29.62
2023-05-24T12:29:12.854Z,27.40
2023-05-24T12:30:21.423Z,27.65
2023-05-24T12:31:23.282Z,26.51
2023-05-24T12:32:25.601Z,25.15
2023-05-24T12:33:27.672Z,27.86
2023-05-24T12:34:29.956Z,28.23
2023-05-24T12:35:31.889Z,26.65
2023-05-24T12:36:35.778Z,26.92
2023-05-24T12:37:37.502Z,26.76
2023-05-24T12:38:39.346Z,25.56
2023-05-24T12:39:43.421Z,26.96
2023-05-24T12:40:57.057Z,25.63
2023-05-24T12:42:11.673Z,27.25
2023-05-24T12:43:15.029Z,24.40
2023-05-24T12:44:16.796Z,25.65
2023-05-24T12:45:26.043Z,25.80
2023-05-24T12:46:27.924Z,25.75
2023-05-24T12:47:29.829Z,25.94
2023-05-24T12:48:31.682Z,25.26
2023-05-24T12:49:33.991Z,23.48
2023-05-24T12:50:35.981Z,25.00
2023-05-24T12:51:37.775Z,25.48
2023-05-24T12:52:39.600Z,25.30
2023-05-24T12:53:41.667Z,25.06
2023-05-24T12:54:43.423Z,23.98
2023-05-24T12:55:45.490Z,22.94
2023-05-24T12:56:47.513Z,23.38
2023-05-24T12:57:56.160Z,25.47
2023-05-24T12:58:58.012Z,25.77
2023-05-24T12:59:59.761Z,25.58
2023-05-24T13:01:01.754Z,26.83
2023-05-24T13:02:03.570Z,24.61
2023-05-24T13:03:05.396Z,23.78
2023-05-24T13:04:07.364Z,24.67
2023-05-24T13:05:09.275Z,25.15
2023-05-24T13:06:11.307Z,24.10
2023-05-24T13:07:13.236Z,24.99
2023-05-24T13:08:15.034Z,23.50
2023-05-24T13:09:21.970Z,24.38
2023-05-24T13:10:24.838Z,23.49
2023-05-24T13:11:27.757Z,24.44
2023-05-24T13:12:29.639Z,24.68
2023-05-24T13:13:32.704Z,24.24
2023-05-24T13:14:34.660Z,24.75
2023-05-24T13:15:38.153Z,25.41
2023-05-24T13:16:40.015Z,24.88
2023-05-24T13:17:42.924Z,26.00
2023-05-24T13:18:46.417Z,25.91
2023-05-24T13:19:48.184Z,24.99
2023-05-24T13:20:51.194Z,24.44
2023-05-24T13:21:53.092Z,24.04
2023-05-24T13:22:54.898Z,24.24
2023-05-24T13:23:56.643Z,25.75
2023-05-24T13:24:58.769Z,24.78
2023-05-24T13:26:00.766Z,24.88
2023-05-24T13:27:03.630Z,28.38
2023-05-24T13:28:05.420Z,26.77
2023-05-24T13:29:32.210Z,25.49
2023-05-24T13:30:30.148Z,25.09
2023-05-24T13:31:32.009Z,25.37
2023-05-24T13:32:33.858Z,26.04
2023-05-24T13:33:35.675Z,25.77
2023-05-24T13:34:37.484Z,25.53
2023-05-24T13:35:40.040Z,25.95
2023-05-24T13:36:43.151Z,26.66
2023-05-24T13:37:44.928Z,26.91
2023-05-24T13:38:46.676Z,27.48
2023-05-24T13:39:49.718Z,27.20
2023-05-24T13:40:53.730Z,25.20
2023-05-24T13:41:55.601Z,25.63